sensor_id;sensor_type;location;lat;lon;timestamp;temperature;humidity
2967;DHT22;1493;51.496;7.210;2022-09-12T00:00:27;15.30;99.90
2967;DHT22;1493;51.496;7.210;2022-09-12T00:02:57;15.20;99.90
2967;DHT22;1493;51.496;7.210;2022-09-12T00:05:25;15.20;99.90
2967;DHT22;1493;51.496;7.210;2022-09-12T00:07:53;15.20;99.90
2967;DHT22;1493;51.496;7.210;2022-09-12T00:10:20;15.20;99.90
2967;DHT22;1493;51.496;7.210;2022-09-12T00:12:47;15.20;99.90
2967;DHT22;1493;51.496;7.210;2022-09-12T00:15:14;15.20;99.90
2967;DHT22;1493;51.496;7.210;2022-09-12T00:17:41;15.20;99.90
2967;DHT22;1493;51.496;7.210;2022-09-12T00:20:08;15.10;99.90
2967;DHT22;1493;51.496;7.210;2022-09-12T00:22:36;15.20;99.90
2967;DHT22;1493;51.496;7.210;2022-09-12T00:25:05;15.20;99.90
2967;DHT22;1493;51.496;7.210;2022-09-12T00:27:33;15.10;99.90
2967;DHT22;1493;51.496;7.210;2022-09-12T00:30:00;15.20;99.90
2967;DHT22;1493;51.496;7.210;2022-09-12T00:32:26;15.10;99.90
2967;DHT22;1493;51.496;7.210;2022-09-12T00:34:53;15.10;99.90
2967;DHT22;1493;51.496;7.210;2022-09-12T00:37:20;15.10;99.90
2967;DHT22;1493;51.496;7.210;2022-09-12T00:39:47;15.00;99.90
2967;DHT22;1493;51.496;7.210;2022-09-12T00:42:15;15.00;99.90
2967;DHT22;1493;51.496;7.210;2022-09-12T00:44:48;15.00;99.90
2967;DHT22;1493;51.496;7.210;2022-09-12T00:47:26;15.00;99.90
2967;DHT22;1493;51.496;7.210;2022-09-12T00:49:58;15.00;99.90
2967;DHT22;1493;51.496;7.210;2022-09-12T00:52:28;15.00;99.90
2967;DHT22;1493;51.496;7.210;2022-09-12T00:55:00;15.00;99.90
2967;DHT22;1493;51.496;7.210;2022-09-12T00:57:33;14.90;99.90
2967;DHT22;1493;51.496;7.210;2022-09-12T01:00:06;14.90;99.90
2967;DHT22;1493;51.496;7.210;2022-09-12T01:02:38;14.90;99.90
2967;DHT22;1493;51.496;7.210;2022-09-12T01:05:06;14.90;99.90
2967;DHT22;1493;51.496;7.210;2022-09-12T01:07:34;14.90;99.90
2967;DHT22;1493;51.496;7.210;2022-09-12T01:10:02;14.90;99.90
2967;DHT22;1493;51.496;7.210;2022-09-12T01:12:30;14.90;99.90
2967;DHT22;1493;51.496;7.210;2022-09-12T01:14:57;14.90;99.90
2967;DHT22;1493;51.496;7.210;2022-09-12T01:17:30;14.90;99.90
2967;DHT22;1493;51.496;7.210;2022-09-12T01:20:30;14.80;99.90
2967;DHT22;1493;51.496;7.210;2022-09-12T01:23:25;14.80;99.90
2967;DHT22;1493;51.496;7.210;2022-09-12T01:26:14;14.80;99.90
2967;DHT22;1493;51.496;7.210;2022-09-12T01:29:00;14.80;99.90
2967;DHT22;1493;51.496;7.210;2022-09-12T01:31:33;14.80;99.90
2967;DHT22;1493;51.496;7.210;2022-09-12T01:34:12;14.70;99.90
2967;DHT22;1493;51.496;7.210;2022-09-12T01:36:50;14.70;99.90
2967;DHT22;1493;51.496;7.210;2022-09-12T01:39:28;14.70;99.90
2967;DHT22;1493;51.496;7.210;2022-09-12T01:42:07;14.60;99.90
2967;DHT22;1493;51.496;7.210;2022-09-12T01:44:44;14.60;99.90
2967;DHT22;1493;51.496;7.210;2022-09-12T01:47:18;14.60;99.90
2967;DHT22;1493;51.496;7.210;2022-09-12T01:49:51;14.60;99.90
2967;DHT22;1493;51.496;7.210;2022-09-12T01:52:24;14.60;99.90
2967;DHT22;1493;51.496;7.210;2022-09-12T01:54:58;14.60;99.90
2967;DHT22;1493;51.496;7.210;2022-09-12T01:57:31;14.60;99.90
2967;DHT22;1493;51.496;7.210;2022-09-12T02:00:04;14.60;99.90
2967;DHT22;1493;51.496;7.210;2022-09-12T02:02:35;14.60;99.90
2967;DHT22;1493;51.496;7.210;2022-09-12T02:05:07;14.60;99.90
2967;DHT22;1493;51.496;7.210;2022-09-12T02:07:37;14.50;99.90
2967;DHT22;1493;51.496;7.210;2022-09-12T02:10:09;14.50;99.90
2967;DHT22;1493;51.496;7.210;2022-09-12T02:12:42;14.50;99.90
2967;DHT22;1493;51.496;7.210;2022-09-12T02:15:11;14.50;99.90
2967;DHT22;1493;51.496;7.210;2022-09-12T02:17:42;14.50;99.90
2967;DHT22;1493;51.496;7.210;2022-09-12T02:20:17;14.50;99.90
2967;DHT22;1493;51.496;7.210;2022-09-12T02:22:46;14.50;99.90
2967;DHT22;1493;51.496;7.210;2022-09-12T02:25:17;14.40;99.90
2967;DHT22;1493;51.496;7.210;2022-09-12T02:27:47;14.50;99.90
2967;DHT22;1493;51.496;7.210;2022-09-12T02:30:15;14.40;99.90
2967;DHT22;1493;51.496;7.210;2022-09-12T02:32:55;14.40;99.90
2967;DHT22;1493;51.496;7.210;2022-09-12T02:35:31;14.40;99.90
2967;DHT22;1493;51.496;7.210;2022-09-12T02:38:03;14.30;99.90
2967;DHT22;1493;51.496;7.210;2022-09-12T02:40:32;14.30;99.90
2967;DHT22;1493;51.496;7.210;2022-09-12T02:43:00;14.30;99.90
2967;DHT22;1493;51.496;7.210;2022-09-12T02:45:28;14.30;99.90
2967;DHT22;1493;51.496;7.210;2022-09-12T02:48:01;14.30;99.90
2967;DHT22;1493;51.496;7.210;2022-09-12T02:50:31;14.30;99.90
2967;DHT22;1493;51.496;7.210;2022-09-12T02:52:58;14.20;99.90
2967;DHT22;1493;51.496;7.210;2022-09-12T02:55:31;14.20;99.90
2967;DHT22;1493;51.496;7.210;2022-09-12T02:57:58;14.20;99.90
2967;DHT22;1493;51.496;7.210;2022-09-12T03:00:26;14.20;99.90
2967;DHT22;1493;51.496;7.210;2022-09-12T03:03:17;14.20;99.90
2967;DHT22;1493;51.496;7.210;2022-09-12T03:05:55;14.20;99.90
2967;DHT22;1493;51.496;7.210;2022-09-12T03:08:44;14.20;99.90
2967;DHT22;1493;51.496;7.210;2022-09-12T03:11:37;14.20;99.90
2967;DHT22;1493;51.496;7.210;2022-09-12T03:14:20;14.20;99.90
2967;DHT22;1493;51.496;7.210;2022-09-12T03:16:54;14.20;99.90
2967;DHT22;1493;51.496;7.210;2022-09-12T03:19:32;14.20;99.90
2967;DHT22;1493;51.496;7.210;2022-09-12T03:22:06;14.10;99.90
2967;DHT22;1493;51.496;7.210;2022-09-12T03:24:39;14.20;99.90
2967;DHT22;1493;51.496;7.210;2022-09-12T03:27:14;14.20;99.90
2967;DHT22;1493;51.496;7.210;2022-09-12T03:29:47;14.20;99.90
2967;DHT22;1493;51.496;7.210;2022-09-12T03:32:15;14.20;99.90
2967;DHT22;1493;51.496;7.210;2022-09-12T03:34:43;14.10;99.90
2967;DHT22;1493;51.496;7.210;2022-09-12T03:37:10;14.10;99.90
2967;DHT22;1493;51.496;7.210;2022-09-12T03:39:39;14.10;99.90
2967;DHT22;1493;51.496;7.210;2022-09-12T03:42:06;14.10;99.90
2967;DHT22;1493;51.496;7.210;2022-09-12T03:44:33;14.10;99.90
2967;DHT22;1493;51.496;7.210;2022-09-12T03:46:59;14.10;99.90
2967;DHT22;1493;51.496;7.210;2022-09-12T03:49:26;14.10;99.90
2967;DHT22;1493;51.496;7.210;2022-09-12T03:51:54;14.20;99.90
2967;DHT22;1493;51.496;7.210;2022-09-12T03:54:24;14.20;99.90
2967;DHT22;1493;51.496;7.210;2022-09-12T03:56:51;14.20;99.90
2967;DHT22;1493;51.496;7.210;2022-09-12T03:59:18;14.10;99.90
2967;DHT22;1493;51.496;7.210;2022-09-12T04:01:45;14.10;99.90
2967;DHT22;1493;51.496;7.210;2022-09-12T04:04:11;14.10;99.90
2967;DHT22;1493;51.496;7.210;2022-09-12T04:06:38;14.10;99.90
2967;DHT22;1493;51.496;7.210;2022-09-12T04:09:07;14.00;99.90
2967;DHT22;1493;51.496;7.210;2022-09-12T04:11:34;14.00;99.90
2967;DHT22;1493;51.496;7.210;2022-09-12T04:14:01;14.00;99.90
2967;DHT22;1493;51.496;7.210;2022-09-12T04:16:28;14.00;99.90
2967;DHT22;1493;51.496;7.210;2022-09-12T04:18:54;13.90;99.90
2967;DHT22;1493;51.496;7.210;2022-09-12T04:21:22;14.00;99.90
2967;DHT22;1493;51.496;7.210;2022-09-12T04:23:49;14.00;99.90
2967;DHT22;1493;51.496;7.210;2022-09-12T04:26:19;14.00;99.90
2967;DHT22;1493;51.496;7.210;2022-09-12T04:28:46;14.00;99.90
2967;DHT22;1493;51.496;7.210;2022-09-12T04:31:15;14.00;99.90
2967;DHT22;1493;51.496;7.210;2022-09-12T04:33:45;14.00;99.90
2967;DHT22;1493;51.496;7.210;2022-09-12T04:36:13;14.00;99.90
2967;DHT22;1493;51.496;7.210;2022-09-12T04:38:42;14.10;99.90
2967;DHT22;1493;51.496;7.210;2022-09-12T04:41:10;14.10;99.90
2967;DHT22;1493;51.496;7.210;2022-09-12T04:43:38;14.10;99.90
2967;DHT22;1493;51.496;7.210;2022-09-12T04:46:05;14.00;99.90
2967;DHT22;1493;51.496;7.210;2022-09-12T04:48:32;14.00;99.90
2967;DHT22;1493;51.496;7.210;2022-09-12T04:51:06;14.10;99.90
2967;DHT22;1493;51.496;7.210;2022-09-12T04:53:33;14.00;99.90
2967;DHT22;1493;51.496;7.210;2022-09-12T04:56:01;14.10;99.90
2967;DHT22;1493;51.496;7.210;2022-09-12T04:58:29;14.00;99.90
2967;DHT22;1493;51.496;7.210;2022-09-12T05:01:02;14.10;99.90
2967;DHT22;1493;51.496;7.210;2022-09-12T05:03:30;14.10;99.90
2967;DHT22;1493;51.496;7.210;2022-09-12T05:05:57;14.00;99.90
2967;DHT22;1493;51.496;7.210;2022-09-12T05:08:24;14.10;99.90
2967;DHT22;1493;51.496;7.210;2022-09-12T05:10:51;14.10;99.90
2967;DHT22;1493;51.496;7.210;2022-09-12T05:13:17;14.10;99.90
2967;DHT22;1493;51.496;7.210;2022-09-12T05:15:53;14.10;99.90
2967;DHT22;1493;51.496;7.210;2022-09-12T05:18:21;14.10;99.90
2967;DHT22;1493;51.496;7.210;2022-09-12T05:20:48;14.20;99.90
2967;DHT22;1493;51.496;7.210;2022-09-12T05:23:15;14.20;99.90
2967;DHT22;1493;51.496;7.210;2022-09-12T05:25:47;14.20;99.90
2967;DHT22;1493;51.496;7.210;2022-09-12T05:28:15;14.20;99.90
2967;DHT22;1493;51.496;7.210;2022-09-12T05:30:42;14.20;99.90
2967;DHT22;1493;51.496;7.210;2022-09-12T05:33:09;14.30;99.90
2967;DHT22;1493;51.496;7.210;2022-09-12T05:35:37;14.30;99.90
2967;DHT22;1493;51.496;7.210;2022-09-12T05:38:04;14.30;99.90
2967;DHT22;1493;51.496;7.210;2022-09-12T05:40:32;14.40;99.90
2967;DHT22;1493;51.496;7.210;2022-09-12T05:42:59;14.40;99.90
2967;DHT22;1493;51.496;7.210;2022-09-12T05:45:26;14.50;99.90
2967;DHT22;1493;51.496;7.210;2022-09-12T05:47:52;14.50;99.90
2967;DHT22;1493;51.496;7.210;2022-09-12T05:50:19;14.60;99.90
2967;DHT22;1493;51.496;7.210;2022-09-12T05:52:47;14.60;99.90
2967;DHT22;1493;51.496;7.210;2022-09-12T05:55:15;14.60;99.90
2967;DHT22;1493;51.496;7.210;2022-09-12T05:57:43;14.70;99.90
2967;DHT22;1493;51.496;7.210;2022-09-12T06:00:12;14.70;99.90
2967;DHT22;1493;51.496;7.210;2022-09-12T06:02:40;14.80;99.90
2967;DHT22;1493;51.496;7.210;2022-09-12T06:05:07;14.90;99.90
2967;DHT22;1493;51.496;7.210;2022-09-12T06:07:34;15.00;99.90
2967;DHT22;1493;51.496;7.210;2022-09-12T06:10:02;15.00;99.90
2967;DHT22;1493;51.496;7.210;2022-09-12T06:12:29;15.10;99.90
2967;DHT22;1493;51.496;7.210;2022-09-12T06:14:56;15.20;99.90
2967;DHT22;1493;51.496;7.210;2022-09-12T06:17:23;15.30;99.90
2967;DHT22;1493;51.496;7.210;2022-09-12T06:19:51;15.40;99.90
2967;DHT22;1493;51.496;7.210;2022-09-12T06:22:18;15.40;99.90
2967;DHT22;1493;51.496;7.210;2022-09-12T06:24:44;15.60;99.90
2967;DHT22;1493;51.496;7.210;2022-09-12T06:27:13;15.70;99.90
2967;DHT22;1493;51.496;7.210;2022-09-12T06:29:39;15.70;99.90
2967;DHT22;1493;51.496;7.210;2022-09-12T06:32:06;15.80;99.90
2967;DHT22;1493;51.496;7.210;2022-09-12T06:34:33;15.90;99.90
2967;DHT22;1493;51.496;7.210;2022-09-12T06:37:01;16.00;99.90
2967;DHT22;1493;51.496;7.210;2022-09-12T06:39:28;16.00;99.90
2967;DHT22;1493;51.496;7.210;2022-09-12T06:41:56;16.10;99.90
2967;DHT22;1493;51.496;7.210;2022-09-12T06:44:24;16.20;99.90
2967;DHT22;1493;51.496;7.210;2022-09-12T06:46:51;16.20;99.90
2967;DHT22;1493;51.496;7.210;2022-09-12T06:49:33;16.30;99.90
2967;DHT22;1493;51.496;7.210;2022-09-12T06:52:07;16.40;99.90
2967;DHT22;1493;51.496;7.210;2022-09-12T06:54:34;16.40;99.90
2967;DHT22;1493;51.496;7.210;2022-09-12T06:57:01;16.50;99.90
2967;DHT22;1493;51.496;7.210;2022-09-12T06:59:33;16.50;99.90
2967;DHT22;1493;51.496;7.210;2022-09-12T07:01:59;16.60;99.90
2967;DHT22;1493;51.496;7.210;2022-09-12T07:04:27;16.60;99.90
2967;DHT22;1493;51.496;7.210;2022-09-12T07:06:54;16.70;99.90
2967;DHT22;1493;51.496;7.210;2022-09-12T07:09:21;16.80;99.90
2967;DHT22;1493;51.496;7.210;2022-09-12T07:11:50;16.80;99.90
2967;DHT22;1493;51.496;7.210;2022-09-12T07:14:17;17.00;99.90
2967;DHT22;1493;51.496;7.210;2022-09-12T07:16:45;17.00;99.90
2967;DHT22;1493;51.496;7.210;2022-09-12T07:19:12;17.10;99.90
2967;DHT22;1493;51.496;7.210;2022-09-12T07:21:39;17.20;99.90
2967;DHT22;1493;51.496;7.210;2022-09-12T07:24:06;17.30;99.90
2967;DHT22;1493;51.496;7.210;2022-09-12T07:26:34;17.40;99.90
2967;DHT22;1493;51.496;7.210;2022-09-12T07:29:01;17.50;99.90
2967;DHT22;1493;51.496;7.210;2022-09-12T07:31:28;17.60;99.90
2967;DHT22;1493;51.496;7.210;2022-09-12T07:33:56;17.60;99.90
2967;DHT22;1493;51.496;7.210;2022-09-12T07:36:24;17.70;99.90
2967;DHT22;1493;51.496;7.210;2022-09-12T07:38:54;17.80;99.90
2967;DHT22;1493;51.496;7.210;2022-09-12T07:41:23;17.80;99.90
2967;DHT22;1493;51.496;7.210;2022-09-12T07:43:56;17.90;99.90
2967;DHT22;1493;51.496;7.210;2022-09-12T07:46:24;17.90;99.90
2967;DHT22;1493;51.496;7.210;2022-09-12T07:48:53;18.00;99.90
2967;DHT22;1493;51.496;7.210;2022-09-12T07:51:22;18.00;99.90
2967;DHT22;1493;51.496;7.210;2022-09-12T07:53:50;18.00;99.90
2967;DHT22;1493;51.496;7.210;2022-09-12T07:56:18;18.10;99.90
2967;DHT22;1493;51.496;7.210;2022-09-12T07:58:45;18.20;99.90
2967;DHT22;1493;51.496;7.210;2022-09-12T08:01:14;18.00;99.90
2967;DHT22;1493;51.496;7.210;2022-09-12T08:03:44;18.10;99.90
2967;DHT22;1493;51.496;7.210;2022-09-12T08:06:13;18.20;99.90
2967;DHT22;1493;51.496;7.210;2022-09-12T08:08:42;18.30;99.90
2967;DHT22;1493;51.496;7.210;2022-09-12T08:11:12;18.40;99.90
2967;DHT22;1493;51.496;7.210;2022-09-12T08:13:40;18.50;99.90
2967;DHT22;1493;51.496;7.210;2022-09-12T08:16:11;18.50;99.90
2967;DHT22;1493;51.496;7.210;2022-09-12T08:18:39;18.60;99.90
2967;DHT22;1493;51.496;7.210;2022-09-12T08:21:11;18.60;99.90
2967;DHT22;1493;51.496;7.210;2022-09-12T08:23:38;18.70;99.90
2967;DHT22;1493;51.496;7.210;2022-09-12T08:26:08;18.80;99.90
2967;DHT22;1493;51.496;7.210;2022-09-12T08:28:35;18.80;99.90
2967;DHT22;1493;51.496;7.210;2022-09-12T08:31:03;18.90;99.90
2967;DHT22;1493;51.496;7.210;2022-09-12T08:33:31;19.00;99.90
2967;DHT22;1493;51.496;7.210;2022-09-12T08:36:05;19.10;99.90
2967;DHT22;1493;51.496;7.210;2022-09-12T08:38:32;19.10;99.90
2967;DHT22;1493;51.496;7.210;2022-09-12T08:41:03;19.10;99.90
2967;DHT22;1493;51.496;7.210;2022-09-12T08:43:52;19.20;99.90
2967;DHT22;1493;51.496;7.210;2022-09-12T08:46:24;19.20;99.90
2967;DHT22;1493;51.496;7.210;2022-09-12T08:49:00;19.30;99.90
2967;DHT22;1493;51.496;7.210;2022-09-12T08:51:31;19.40;99.90
2967;DHT22;1493;51.496;7.210;2022-09-12T08:54:03;19.40;99.90
2967;DHT22;1493;51.496;7.210;2022-09-12T08:56:41;19.50;99.90
2967;DHT22;1493;51.496;7.210;2022-09-12T08:59:12;19.70;99.90
2967;DHT22;1493;51.496;7.210;2022-09-12T09:01:55;19.80;99.90
2967;DHT22;1493;51.496;7.210;2022-09-12T09:04:34;20.00;99.90
2967;DHT22;1493;51.496;7.210;2022-09-12T09:07:17;20.10;99.90
2967;DHT22;1493;51.496;7.210;2022-09-12T09:10:02;20.20;99.90
2967;DHT22;1493;51.496;7.210;2022-09-12T09:12:42;20.30;99.90
2967;DHT22;1493;51.496;7.210;2022-09-12T09:15:31;20.30;99.90
2967;DHT22;1493;51.496;7.210;2022-09-12T09:18:00;20.40;99.90
2967;DHT22;1493;51.496;7.210;2022-09-12T09:20:33;20.30;99.90
2967;DHT22;1493;51.496;7.210;2022-09-12T09:23:05;20.50;99.90
2967;DHT22;1493;51.496;7.210;2022-09-12T09:25:39;20.70;99.90
2967;DHT22;1493;51.496;7.210;2022-09-12T09:28:13;20.80;99.90
2967;DHT22;1493;51.496;7.210;2022-09-12T09:30:44;20.80;99.90
2967;DHT22;1493;51.496;7.210;2022-09-12T09:33:19;21.00;99.90
2967;DHT22;1493;51.496;7.210;2022-09-12T09:35:53;21.20;99.90
2967;DHT22;1493;51.496;7.210;2022-09-12T09:38:24;21.40;99.90
2967;DHT22;1493;51.496;7.210;2022-09-12T09:41:10;21.60;99.90
2967;DHT22;1493;51.496;7.210;2022-09-12T09:43:40;21.70;99.90
2967;DHT22;1493;51.496;7.210;2022-09-12T09:46:08;22.10;99.90
2967;DHT22;1493;51.496;7.210;2022-09-12T09:48:37;22.30;99.90
2967;DHT22;1493;51.496;7.210;2022-09-12T09:51:06;22.50;99.90
2967;DHT22;1493;51.496;7.210;2022-09-12T09:53:39;22.70;99.90
2967;DHT22;1493;51.496;7.210;2022-09-12T09:56:12;22.40;99.90
2967;DHT22;1493;51.496;7.210;2022-09-12T09:58:41;22.50;99.90
2967;DHT22;1493;51.496;7.210;2022-09-12T10:01:14;22.70;99.90
2967;DHT22;1493;51.496;7.210;2022-09-12T10:03:47;22.80;99.90
2967;DHT22;1493;51.496;7.210;2022-09-12T10:06:25;23.20;99.90
2967;DHT22;1493;51.496;7.210;2022-09-12T10:09:04;23.50;99.90
2967;DHT22;1493;51.496;7.210;2022-09-12T10:11:32;23.70;99.90
2967;DHT22;1493;51.496;7.210;2022-09-12T10:13:59;24.00;99.90
2967;DHT22;1493;51.496;7.210;2022-09-12T10:16:29;24.40;99.90
2967;DHT22;1493;51.496;7.210;2022-09-12T10:18:57;24.70;99.90
2967;DHT22;1493;51.496;7.210;2022-09-12T10:21:31;24.60;99.90
2967;DHT22;1493;51.496;7.210;2022-09-12T10:24:15;24.60;99.90
2967;DHT22;1493;51.496;7.210;2022-09-12T10:26:48;24.60;99.90
2967;DHT22;1493;51.496;7.210;2022-09-12T10:29:29;24.70;99.90
2967;DHT22;1493;51.496;7.210;2022-09-12T10:32:19;24.90;99.90
2967;DHT22;1493;51.496;7.210;2022-09-12T10:34:48;24.90;99.90
2967;DHT22;1493;51.496;7.210;2022-09-12T10:37:23;24.90;99.90
2967;DHT22;1493;51.496;7.210;2022-09-12T10:39:52;25.10;99.90
2967;DHT22;1493;51.496;7.210;2022-09-12T10:42:48;25.20;99.90
2967;DHT22;1493;51.496;7.210;2022-09-12T10:45:26;25.30;99.90
2967;DHT22;1493;51.496;7.210;2022-09-12T10:47:57;25.50;99.90
2967;DHT22;1493;51.496;7.210;2022-09-12T10:50:27;25.60;99.90
2967;DHT22;1493;51.496;7.210;2022-09-12T10:52:55;25.60;99.90
2967;DHT22;1493;51.496;7.210;2022-09-12T10:55:41;25.80;99.90
2967;DHT22;1493;51.496;7.210;2022-09-12T10:58:21;26.00;99.90
2967;DHT22;1493;51.496;7.210;2022-09-12T11:01:01;26.10;99.90
2967;DHT22;1493;51.496;7.210;2022-09-12T11:03:48;26.20;99.90
2967;DHT22;1493;51.496;7.210;2022-09-12T11:06:29;26.20;99.90
2967;DHT22;1493;51.496;7.210;2022-09-12T11:09:08;26.30;99.90
2967;DHT22;1493;51.496;7.210;2022-09-12T11:11:50;26.40;99.90
2967;DHT22;1493;51.496;7.210;2022-09-12T11:14:36;26.50;99.90
2967;DHT22;1493;51.496;7.210;2022-09-12T11:17:15;26.50;99.90
2967;DHT22;1493;51.496;7.210;2022-09-12T11:20:08;26.50;99.90
2967;DHT22;1493;51.496;7.210;2022-09-12T11:22:56;26.50;99.90
2967;DHT22;1493;51.496;7.210;2022-09-12T11:25:29;26.70;99.90
2967;DHT22;1493;51.496;7.210;2022-09-12T11:28:17;26.80;99.90
2967;DHT22;1493;51.496;7.210;2022-09-12T11:30:55;26.80;99.90
2967;DHT22;1493;51.496;7.210;2022-09-12T11:33:34;27.00;99.90
2967;DHT22;1493;51.496;7.210;2022-09-12T11:36:12;27.20;99.90
2967;DHT22;1493;51.496;7.210;2022-09-12T11:39:07;27.30;99.90
2967;DHT22;1493;51.496;7.210;2022-09-12T11:41:40;27.40;99.90
2967;DHT22;1493;51.496;7.210;2022-09-12T11:44:14;27.80;99.90
2967;DHT22;1493;51.496;7.210;2022-09-12T11:46:45;27.90;99.90
2967;DHT22;1493;51.496;7.210;2022-09-12T11:49:24;27.60;99.90
2967;DHT22;1493;51.496;7.210;2022-09-12T11:51:59;27.60;99.90
2967;DHT22;1493;51.496;7.210;2022-09-12T11:54:32;27.80;99.90
2967;DHT22;1493;51.496;7.210;2022-09-12T11:57:09;27.80;99.90
2967;DHT22;1493;51.496;7.210;2022-09-12T11:59:43;27.50;99.90
2967;DHT22;1493;51.496;7.210;2022-09-12T12:02:21;27.50;99.90
2967;DHT22;1493;51.496;7.210;2022-09-12T12:05:14;27.50;99.90
2967;DHT22;1493;51.496;7.210;2022-09-12T12:07:51;27.80;99.90
2967;DHT22;1493;51.496;7.210;2022-09-12T12:10:28;27.60;99.90
2967;DHT22;1493;51.496;7.210;2022-09-12T12:12:58;26.90;99.90
2967;DHT22;1493;51.496;7.210;2022-09-12T12:15:27;26.20;99.90
2967;DHT22;1493;51.496;7.210;2022-09-12T12:18:17;26.30;99.90
2967;DHT22;1493;51.496;7.210;2022-09-12T12:20:44;27.00;99.90
2967;DHT22;1493;51.496;7.210;2022-09-12T12:23:23;27.60;99.90
2967;DHT22;1493;51.496;7.210;2022-09-12T12:25:57;28.00;99.90
2967;DHT22;1493;51.496;7.210;2022-09-12T12:28:54;28.40;99.90
2967;DHT22;1493;51.496;7.210;2022-09-12T12:31:23;28.50;99.90
2967;DHT22;1493;51.496;7.210;2022-09-12T12:34:21;28.80;99.90
2967;DHT22;1493;51.496;7.210;2022-09-12T12:36:51;28.20;99.90
2967;DHT22;1493;51.496;7.210;2022-09-12T12:43:26;27.10;99.90
2967;DHT22;1493;51.496;7.210;2022-09-12T12:46:03;27.50;99.90
2967;DHT22;1493;51.496;7.210;2022-09-12T12:48:34;28.10;99.90
2967;DHT22;1493;51.496;7.210;2022-09-12T12:54:31;28.70;99.90
2967;DHT22;1493;51.496;7.210;2022-09-12T12:57:05;29.00;99.90
2967;DHT22;1493;51.496;7.210;2022-09-12T12:59:48;28.90;99.90
2967;DHT22;1493;51.496;7.210;2022-09-12T13:02:20;28.30;99.90
2967;DHT22;1493;51.496;7.210;2022-09-12T13:04:49;28.40;99.90
2967;DHT22;1493;51.496;7.210;2022-09-12T13:07:24;28.70;99.90
2967;DHT22;1493;51.496;7.210;2022-09-12T13:09:52;28.80;99.90
2967;DHT22;1493;51.496;7.210;2022-09-12T13:12:21;29.00;99.90
2967;DHT22;1493;51.496;7.210;2022-09-12T13:14:52;29.20;99.90
2967;DHT22;1493;51.496;7.210;2022-09-12T13:17:38;29.00;99.90
2967;DHT22;1493;51.496;7.210;2022-09-12T13:20:22;28.80;99.90
2967;DHT22;1493;51.496;7.210;2022-09-12T13:22:51;29.10;99.90
2967;DHT22;1493;51.496;7.210;2022-09-12T13:25:24;29.20;99.90
2967;DHT22;1493;51.496;7.210;2022-09-12T13:28:05;29.10;99.90
2967;DHT22;1493;51.496;7.210;2022-09-12T13:30:36;28.60;99.90
2967;DHT22;1493;51.496;7.210;2022-09-12T13:33:15;28.50;99.90
2967;DHT22;1493;51.496;7.210;2022-09-12T13:36:06;28.50;99.90
2967;DHT22;1493;51.496;7.210;2022-09-12T13:38:43;28.40;99.90
2967;DHT22;1493;51.496;7.210;2022-09-12T13:41:33;28.30;99.90
2967;DHT22;1493;51.496;7.210;2022-09-12T13:44:08;28.40;99.90
2967;DHT22;1493;51.496;7.210;2022-09-12T13:46:37;28.40;99.90
2967;DHT22;1493;51.496;7.210;2022-09-12T13:49:09;28.30;99.90
2967;DHT22;1493;51.496;7.210;2022-09-12T13:51:37;28.20;99.90
2967;DHT22;1493;51.496;7.210;2022-09-12T13:54:04;28.40;99.90
2967;DHT22;1493;51.496;7.210;2022-09-12T13:56:31;28.50;99.90
2967;DHT22;1493;51.496;7.210;2022-09-12T13:58:59;28.30;99.90
2967;DHT22;1493;51.496;7.210;2022-09-12T14:01:39;28.20;99.90
2967;DHT22;1493;51.496;7.210;2022-09-12T14:04:15;28.30;99.90
2967;DHT22;1493;51.496;7.210;2022-09-12T14:07:00;28.20;99.90
2967;DHT22;1493;51.496;7.210;2022-09-12T14:09:31;28.10;99.90
2967;DHT22;1493;51.496;7.210;2022-09-12T14:12:00;28.20;99.90
2967;DHT22;1493;51.496;7.210;2022-09-12T14:14:31;28.20;99.90
2967;DHT22;1493;51.496;7.210;2022-09-12T14:16:59;27.90;99.90
2967;DHT22;1493;51.496;7.210;2022-09-12T14:19:27;27.80;99.90
2967;DHT22;1493;51.496;7.210;2022-09-12T14:21:55;27.70;99.90
2967;DHT22;1493;51.496;7.210;2022-09-12T14:24:23;27.40;99.90
2967;DHT22;1493;51.496;7.210;2022-09-12T14:26:51;27.50;99.90
2967;DHT22;1493;51.496;7.210;2022-09-12T14:29:20;27.40;99.90
2967;DHT22;1493;51.496;7.210;2022-09-12T14:32:14;27.40;99.90
2967;DHT22;1493;51.496;7.210;2022-09-12T14:35:17;27.20;99.90
2967;DHT22;1493;51.496;7.210;2022-09-12T14:37:47;27.50;99.90
2967;DHT22;1493;51.496;7.210;2022-09-12T14:40:17;27.50;99.90
2967;DHT22;1493;51.496;7.210;2022-09-12T14:42:44;27.30;99.90
2967;DHT22;1493;51.496;7.210;2022-09-12T14:45:16;27.10;99.90
2967;DHT22;1493;51.496;7.210;2022-09-12T14:47:48;26.80;99.90
2967;DHT22;1493;51.496;7.210;2022-09-12T14:50:17;26.80;99.90
2967;DHT22;1493;51.496;7.210;2022-09-12T14:52:45;26.70;99.90
2967;DHT22;1493;51.496;7.210;2022-09-12T14:55:22;26.30;99.90
2967;DHT22;1493;51.496;7.210;2022-09-12T14:58:06;26.20;99.90
2967;DHT22;1493;51.496;7.210;2022-09-12T15:00:53;26.10;99.90
2967;DHT22;1493;51.496;7.210;2022-09-12T15:03:48;26.00;99.90
2967;DHT22;1493;51.496;7.210;2022-09-12T15:09:28;25.90;99.90
2967;DHT22;1493;51.496;7.210;2022-09-12T15:12:00;25.70;99.90
2967;DHT22;1493;51.496;7.210;2022-09-12T15:14:37;25.60;99.90
2967;DHT22;1493;51.496;7.210;2022-09-12T15:17:08;25.60;99.90
2967;DHT22;1493;51.496;7.210;2022-09-12T15:20:01;25.40;99.90
2967;DHT22;1493;51.496;7.210;2022-09-12T15:22:28;25.10;99.90
2967;DHT22;1493;51.496;7.210;2022-09-12T15:24:55;25.10;99.90
2967;DHT22;1493;51.496;7.210;2022-09-12T15:27:27;25.10;99.90
2967;DHT22;1493;51.496;7.210;2022-09-12T15:29:54;24.90;99.90
2967;DHT22;1493;51.496;7.210;2022-09-12T15:32:23;25.00;99.90
2967;DHT22;1493;51.496;7.210;2022-09-12T15:34:59;25.00;99.90
2967;DHT22;1493;51.496;7.210;2022-09-12T15:37:46;24.70;99.90
2967;DHT22;1493;51.496;7.210;2022-09-12T15:40:16;24.80;99.90
2967;DHT22;1493;51.496;7.210;2022-09-12T15:42:43;24.80;99.90
2967;DHT22;1493;51.496;7.210;2022-09-12T15:45:19;24.60;99.90
2967;DHT22;1493;51.496;7.210;2022-09-12T15:47:50;24.50;99.90
2967;DHT22;1493;51.496;7.210;2022-09-12T15:50:19;24.40;99.90
2967;DHT22;1493;51.496;7.210;2022-09-12T15:52:51;24.40;99.90
2967;DHT22;1493;51.496;7.210;2022-09-12T16:00:56;24.20;99.90
2967;DHT22;1493;51.496;7.210;2022-09-12T16:03:25;24.10;99.90
2967;DHT22;1493;51.496;7.210;2022-09-12T16:09:39;24.00;99.90
2967;DHT22;1493;51.496;7.210;2022-09-12T16:12:12;24.00;99.90
2967;DHT22;1493;51.496;7.210;2022-09-12T16:14:42;23.90;99.90
2967;DHT22;1493;51.496;7.210;2022-09-12T16:17:12;23.70;99.90
2967;DHT22;1493;51.496;7.210;2022-09-12T16:19:44;23.60;99.90
2967;DHT22;1493;51.496;7.210;2022-09-12T16:22:14;23.50;99.90
2967;DHT22;1493;51.496;7.210;2022-09-12T16:24:42;23.40;99.90
2967;DHT22;1493;51.496;7.210;2022-09-12T16:27:19;23.40;99.90
2967;DHT22;1493;51.496;7.210;2022-09-12T16:29:46;23.40;99.90
2967;DHT22;1493;51.496;7.210;2022-09-12T16:32:16;23.30;99.90
2967;DHT22;1493;51.496;7.210;2022-09-12T16:34:43;23.20;99.90
2967;DHT22;1493;51.496;7.210;2022-09-12T16:37:13;23.20;99.90
2967;DHT22;1493;51.496;7.210;2022-09-12T16:39:48;23.10;99.90
2967;DHT22;1493;51.496;7.210;2022-09-12T16:42:15;23.00;99.90
2967;DHT22;1493;51.496;7.210;2022-09-12T16:44:44;22.90;99.90
2967;DHT22;1493;51.496;7.210;2022-09-12T16:47:11;22.90;99.90
2967;DHT22;1493;51.496;7.210;2022-09-12T16:49:37;22.90;99.90
2967;DHT22;1493;51.496;7.210;2022-09-12T16:52:05;22.90;99.90
2967;DHT22;1493;51.496;7.210;2022-09-12T16:54:32;22.90;99.90